Time;durP1;ratioP1;P1;durP2;ratioP2;P2;SDS_P1;SDS_P2;PMS_P1;PMS_P2;Temp;Humidity;BMP_temperature;BMP_pressure;BME280_temperature;BME280_humidity;BME280_pressure;Samples;Min_cycle;Max_cycle;Signal;HPM_P1;HPM_P2
2023/07/16 00:00:00;;;;;;;7.90;4.32;;;23.30;73.40;;;22.93;88.49;95615.31;5036177;27;20041;-64
2023/07/16 00:02:26;;;;;;;9.43;5.03;;;23.10;73.50;;;22.78;89.98;95621.53;5079615;28;20130;-65
2023/07/16 00:04:52;;;;;;;5.68;4.10;;;23.10;74.20;;;22.69;91.43;95615.16;5038761;28;20024;-64
2023/07/16 00:07:17;;;;;;;6.95;4.63;;;23.10;74.60;;;22.62;92.65;95617.31;5066676;28;20386;-64
2023/07/16 00:09:44;;;;;;;6.43;4.50;;;23.10;74.50;;;22.53;93.23;95603.69;5050349;28;20036;-65
2023/07/16 00:12:10;;;;;;;6.50;4.68;;;22.90;74.70;;;22.44;94.12;95604.56;5028193;28;20048;-65
2023/07/16 00:14:35;;;;;;;9.88;4.97;;;22.70;75.60;;;22.37;95.08;95615.56;5040069;28;20051;-64
2023/07/16 00:17:01;;;;;;;6.45;4.32;;;22.70;75.70;;;22.27;96.21;95620.97;5037006;28;20036;-64
2023/07/16 00:19:27;;;;;;;6.82;4.57;;;22.60;76.20;;;22.22;97.02;95629.03;5076944;28;20078;-65
2023/07/16 00:21:53;;;;;;;8.95;4.70;;;22.60;76.10;;;22.11;97.82;95636.28;5048108;28;20104;-65
2023/07/16 00:24:18;;;;;;;10.25;4.40;;;22.50;76.80;;;22.04;99.18;95627.75;5059125;27;20091;-65
2023/07/16 00:26:47;;;;;;;5.68;4.43;;;22.50;76.90;;;21.99;100.00;95620.50;5071916;28;20399;-65
2023/07/16 00:29:13;;;;;;;7.93;4.53;;;22.50;77.00;;;21.93;100.00;95626.94;5076183;27;20071;-64
2023/07/16 00:31:38;;;;;;;6.90;4.40;;;22.40;76.90;;;21.89;100.00;95631.25;5074095;28;20054;-63
2023/07/16 00:34:04;;;;;;;5.95;4.60;;;22.30;77.30;;;21.85;100.00;95622.16;5084860;28;20066;-64
2023/07/16 00:36:30;;;;;;;7.43;4.28;;;22.30;77.50;;;21.85;100.00;95624.03;5065911;27;20099;-64
2023/07/16 00:38:56;;;;;;;6.97;4.63;;;22.40;77.80;;;21.84;100.00;95636.59;5073184;28;20526;-64
2023/07/16 00:41:21;;;;;;;6.78;4.80;;;22.40;77.70;;;21.84;100.00;95641.97;5066139;28;20414;-64
2023/07/16 00:43:47;;;;;;;8.07;4.97;;;22.40;77.90;;;21.83;100.00;95661.78;5063078;28;20038;-64
2023/07/16 00:46:13;;;;;;;8.40;4.60;;;22.40;77.80;;;21.82;100.00;95678.91;5071580;27;20028;-64
2023/07/16 00:48:40;;;;;;;7.55;4.85;;;22.30;78.30;;;21.80;100.00;95723.91;5040288;28;20131;-66
2023/07/16 00:51:06;;;;;;;7.35;4.95;;;22.30;78.10;;;21.78;100.00;95755.50;5068035;28;20035;-64
2023/07/16 00:53:31;;;;;;;7.25;4.68;;;22.20;78.40;;;21.77;100.00;95787.91;5038608;28;20040;-65
2023/07/16 00:55:57;;;;;;;18.50;4.90;;;22.20;78.60;;;21.76;100.00;95835.28;5035861;28;20520;-64
2023/07/16 00:58:23;;;;;;;8.45;5.07;;;22.20;78.80;;;21.70;100.00;95839.81;5062202;28;20032;-64
2023/07/16 01:00:49;;;;;;;6.70;4.78;;;22.10;78.90;;;21.67;100.00;95842.22;5060908;28;20190;-64
2023/07/16 01:03:15;;;;;;;8.45;5.15;;;22.10;78.80;;;21.64;100.00;95864.97;5018205;28;20040;-64
2023/07/16 01:05:56;;;;;;;13.70;5.20;;;22.10;79.00;;;21.59;100.00;95877.53;5030543;28;20032;-64
2023/07/16 01:08:45;;;;;;;9.80;4.60;;;22.00;79.50;;;21.57;100.00;95906.44;5036161;28;20063;-65
2023/07/16 01:11:10;;;;;;;10.20;5.85;;;22.00;79.40;;;21.52;100.00;95898.41;5047694;28;20047;-64
2023/07/16 01:13:36;;;;;;;8.20;5.07;;;22.00;79.40;;;21.52;100.00;95911.78;5076347;27;20035;-65
2023/07/16 01:16:02;;;;;;;8.20;5.30;;;22.10;79.70;;;21.52;100.00;95904.56;5035058;28;20389;-65
2023/07/16 01:18:28;;;;;;;9.82;5.25;;;22.00;79.40;;;21.49;100.00;95909.59;5053004;28;20439;-64
2023/07/16 01:20:53;;;;;;;8.77;5.40;;;22.00;79.80;;;21.50;100.00;95927.28;5038889;28;20112;-64
2023/07/16 01:23:47;;;;;;;15.10;5.78;;;22.00;79.80;;;21.49;100.00;95914.97;5067552;28;20040;-64
2023/07/16 01:26:52;;;;;;;7.93;5.47;;;22.00;79.60;;;21.48;100.00;95924.06;5094735;28;20503;-65
2023/07/16 01:29:30;;;;;;;10.07;5.30;;;22.00;79.70;;;21.48;100.00;95908.00;5068937;28;20055;-65
2023/07/16 01:31:57;;;;;;;7.35;5.40;;;22.10;79.70;;;21.49;100.00;95904.25;5073081;28;20023;-66
2023/07/16 01:34:24;;;;;;;8.10;5.78;;;22.00;79.70;;;21.48;100.00;95918.69;5058855;28;20032;-64
2023/07/16 01:36:50;;;;;;;10.30;5.43;;;22.10;79.60;;;21.46;100.00;95913.63;5051801;28;20040;-64
2023/07/16 01:39:16;;;;;;;10.52;5.75;;;22.00;79.60;;;21.47;100.00;95922.44;5058299;28;20059;-64
2023/07/16 01:41:42;;;;;;;12.30;5.55;;;22.10;79.70;;;21.47;100.00;95914.41;5050001;28;20101;-63
2023/07/16 01:44:07;;;;;;;8.25;5.53;;;22.10;79.80;;;21.46;100.00;95927.00;5059929;28;20035;-64
2023/07/16 01:46:33;;;;;;;11.48;5.72;;;22.10;79.60;;;21.48;100.00;95934.75;5035768;28;20032;-65
2023/07/16 01:48:59;;;;;;;7.82;5.40;;;22.00;79.60;;;21.47;100.00;95928.59;5067033;28;20035;-65
2023/07/16 01:51:24;;;;;;;7.80;5.25;;;22.10;79.80;;;21.47;100.00;95939.31;5080880;28;20217;-65
2023/07/16 01:53:50;;;;;;;9.55;5.40;;;22.10;79.60;;;21.46;100.00;95931.53;5060880;28;20024;-64
2023/07/16 01:56:16;;;;;;;7.07;5.55;;;22.00;79.80;;;21.45;100.00;95943.31;5046751;28;20028;-64
2023/07/16 01:58:42;;;;;;;10.38;5.70;;;22.00;80.00;;;21.43;100.00;95948.13;5040403;28;20032;-63
2023/07/16 02:01:08;;;;;;;10.23;5.38;;;22.00;80.00;;;21.40;100.00;95950.25;5064994;28;20036;-64
2023/07/16 02:03:33;;;;;;;10.07;5.22;;;22.10;80.20;;;21.43;100.00;95953.47;5064863;28;20771;-64
2023/07/16 02:05:59;;;;;;;8.25;5.45;;;22.10;80.10;;;21.45;100.00;95951.34;5068276;28;20036;-64
2023/07/16 02:08:25;;;;;;;9.20;5.55;;;22.10;80.10;;;21.45;100.00;95951.34;5069157;28;20182;-64
2023/07/16 02:10:51;;;;;;;9.50;5.80;;;22.10;80.40;;;21.47;100.00;95962.59;5067727;28;20173;-64
2023/07/16 02:13:16;;;;;;;8.75;5.43;;;22.20;80.00;;;21.46;100.00;95960.97;5040334;28;20163;-64
2023/07/16 02:15:43;;;;;;;10.80;5.63;;;22.10;80.10;;;21.49;100.00;95963.13;5030483;27;20155;-64
2023/07/16 02:18:08;;;;;;;9.57;5.65;;;22.10;80.20;;;21.49;100.00;95957.78;5072554;28;20051;-66
2023/07/16 02:20:34;;;;;;;6.93;5.72;;;22.20;80.20;;;21.51;100.00;95955.69;5040025;28;20032;-64
2023/07/16 02:23:00;;;;;;;8.75;5.43;;;22.20;80.30;;;21.52;100.00;95957.28;5093042;27;20051;-64
2023/07/16 02:25:26;;;;;;;8.98;5.63;;;22.30;80.10;;;21.51;100.00;95945.78;5069924;27;20812;-64
2023/07/16 02:27:51;;;;;;;9.02;5.75;;;22.20;80.30;;;21.53;100.00;95945.50;5090002;27;20873;-64
2023/07/16 02:30:17;;;;;;;12.25;6.15;;;22.30;80.20;;;21.51;100.00;95955.69;5077336;27;20449;-65
2023/07/16 02:32:43;;;;;;;9.80;5.88;;;22.30;80.20;;;21.51;100.00;95974.41;5045866;28;20036;-64
2023/07/16 02:35:09;;;;;;;9.32;6.05;;;22.20;80.20;;;21.53;100.00;95966.91;5065132;28;20609;-64
2023/07/16 02:37:35;;;;;;;9.02;5.80;;;22.20;80.20;;;21.56;100.00;95977.09;5044912;28;20035;-64
2023/07/16 02:40:01;;;;;;;13.48;5.75;;;22.30;80.20;;;21.57;100.00;95976.84;5046200;28;20123;-64
2023/07/16 02:42:27;;;;;;;8.77;6.07;;;22.30;80.10;;;21.58;100.00;95983.00;5076509;28;20571;-65
2023/07/16 02:44:53;;;;;;;8.73;5.70;;;22.30;80.20;;;21.59;100.00;95984.59;5038593;28;20043;-64
2023/07/16 02:47:18;;;;;;;8.75;5.78;;;22.30;80.00;;;21.59;100.00;95992.63;5069916;28;20097;-64
2023/07/16 02:49:44;;;;;;;9.35;5.97;;;22.30;80.40;;;21.58;100.00;96004.41;5057234;28;20050;-64
2023/07/16 02:52:10;;;;;;;6.60;5.40;;;22.30;80.40;;;21.59;100.00;96011.38;5053580;28;20032;-64
2023/07/16 02:54:36;;;;;;;10.68;6.05;;;22.40;80.40;;;21.60;100.00;96010.31;5050845;28;20122;-65
2023/07/16 02:57:02;;;;;;;10.18;6.05;;;22.40;80.30;;;21.59;100.00;96016.72;5041164;28;20059;-64
2023/07/16 02:59:28;;;;;;;6.45;5.57;;;22.40;80.20;;;21.60;100.00;96013.78;5078974;27;20034;-65
2023/07/16 03:01:53;;;;;;;8.68;6.18;;;22.30;80.30;;;21.61;100.00;96020.75;5051719;28;20042;-64
2023/07/16 03:04:19;;;;;;;9.02;5.65;;;22.40;80.40;;;21.64;100.00;96016.75;5059825;28;20036;-64
2023/07/16 03:06:45;;;;;;;7.25;5.88;;;22.50;80.20;;;21.66;100.00;96017.28;5061094;28;20134;-64
2023/07/16 03:09:11;;;;;;;9.02;5.88;;;22.50;80.20;;;21.67;100.00;96024.25;5078240;27;20486;-64
2023/07/16 03:11:36;;;;;;;8.38;6.30;;;22.40;80.50;;;21.68;100.00;96017.81;5038444;28;20679;-67
2023/07/16 03:14:02;;;;;;;8.50;5.32;;;22.40;80.80;;;21.67;100.00;96024.25;5059933;28;20047;-64
2023/07/16 03:16:28;;;;;;;8.30;6.13;;;22.30;80.90;;;21.64;100.00;96022.91;5063158;28;20034;-64
2023/07/16 03:18:54;;;;;;;9.80;6.00;;;22.40;81.10;;;21.63;100.00;96018.63;5075979;27;20693;-65
2023/07/16 03:21:19;;;;;;;7.10;4.13;;;22.40;80.80;;;21.57;100.00;96018.88;5023511;28;20032;-64
2023/07/16 03:23:45;;;;;;;5.25;3.03;;;22.20;79.00;;;21.53;100.00;96034.63;5033042;28;20748;-64
2023/07/16 03:26:11;;;;;;;4.88;2.40;;;22.20;78.10;;;21.50;100.00;96034.31;5042201;27;20116;-64
2023/07/16 03:28:37;;;;;;;6.97;2.50;;;22.10;76.80;;;21.47;100.00;96021.47;5060126;28;20328;-65
2023/07/16 03:31:02;;;;;;;6.22;2.13;;;22.10;76.30;;;21.43;100.00;96020.38;5048208;28;20912;-64
2023/07/16 03:33:28;;;;;;;3.13;2.00;;;22.10;76.20;;;21.36;100.00;96018.75;5061047;27;20092;-64
2023/07/16 03:35:54;;;;;;;2.47;1.60;;;22.10;76.20;;;21.30;100.00;96009.09;5076710;27;20027;-64
2023/07/16 03:38:20;;;;;;;5.93;1.70;;;21.90;76.50;;;21.26;100.00;96013.31;5061988;27;20031;-64
2023/07/16 03:40:49;;;;;;;4.22;1.63;;;22.00;76.70;;;21.23;100.00;96019.16;5077295;28;20038;-64
2023/07/16 03:43:18;;;;;;;2.67;1.70;;;22.00;76.60;;;21.18;100.00;96037.84;5070978;27;20519;-64
2023/07/16 03:45:44;;;;;;;2.25;1.67;;;21.90;77.10;;;21.15;100.00;96038.38;5049526;27;20364;-64
2023/07/16 03:48:10;;;;;;;3.65;1.58;;;21.90;77.00;;;21.13;100.00;96035.16;5048164;28;20127;-65
2023/07/16 03:50:36;;;;;;;3.00;1.70;;;21.90;77.00;;;21.14;100.00;96038.63;5028144;28;20357;-64
2023/07/16 03:53:03;;;;;;;2.40;1.50;;;21.90;77.20;;;21.13;100.00;96035.16;5060724;28;20088;-65
2023/07/16 03:55:29;;;;;;;3.00;1.50;;;21.90;76.60;;;21.13;100.00;96034.34;5069230;28;20028;-64
2023/07/16 03:57:54;;;;;;;4.07;1.75;;;21.90;77.00;;;21.11;100.00;96042.63;5063844;28;20038;-64
2023/07/16 04:00:20;;;;;;;3.35;1.75;;;21.90;77.50;;;21.10;100.00;96041.81;5072369;28;20110;-65
2023/07/16 04:02:46;;;;;;;3.22;1.80;;;21.90;77.70;;;21.07;100.00;96041.53;5037273;28;20379;-65
2023/07/16 04:05:12;;;;;;;2.17;1.55;;;21.80;77.50;;;21.04;100.00;96047.38;5082027;27;20080;-64
2023/07/16 04:07:38;;;;;;;3.45;1.70;;;21.80;77.40;;;21.06;100.00;96050.63;5036219;28;20325;-65
2023/07/16 04:10:04;;;;;;;4.40;1.63;;;21.80;77.60;;;21.05;100.00;96049.00;5071917;27;20047;-64
2023/07/16 04:12:30;;;;;;;2.50;1.52;;;21.90;77.00;;;21.04;100.00;96052.72;5053993;27;20083;-65
2023/07/16 04:14:57;;;;;;;2.65;1.40;;;21.80;76.90;;;21.05;100.00;96067.72;5062332;27;20027;-65
2023/07/16 04:17:23;;;;;;;3.15;1.40;;;21.80;77.00;;;21.04;100.00;96068.75;5060739;27;20049;-64
2023/07/16 04:19:49;;;;;;;2.33;1.40;;;21.90;76.80;;;21.03;100.00;96072.50;5060172;28;20033;-65
2023/07/16 04:22:14;;;;;;;3.08;1.50;;;21.80;76.50;;;21.00;100.00;96075.69;5037236;28;20111;-64
2023/07/16 04:24:40;;;;;;;4.03;1.70;;;21.80;76.40;;;21.00;100.00;96073.03;5042028;28;20042;-64
2023/07/16 04:27:06;;;;;;;4.45;1.70;;;21.80;76.50;;;21.00;100.00;96073.81;5035395;28;20056;-65
2023/07/16 04:29:32;;;;;;;2.50;1.40;;;21.80;76.30;;;20.99;100.00;96082.91;5069171;27;20031;-65
2023/07/16 04:31:58;;;;;;;8.45;1.83;;;21.80;76.40;;;20.97;100.00;96092.25;5055727;28;20028;-65
2023/07/16 04:34:24;;;;;;;2.95;1.42;;;21.70;76.60;;;20.97;100.00;96093.06;5057770;28;20043;-65
2023/07/16 04:36:49;;;;;;;4.20;1.40;;;21.70;76.90;;;20.97;100.00;96089.56;5065213;28;20031;-65
2023/07/16 04:39:15;;;;;;;4.05;1.70;;;21.80;77.20;;;20.96;100.00;96087.97;5079664;28;20027;-65
2023/07/16 04:41:41;;;;;;;5.00;1.73;;;21.70;77.70;;;20.95;100.00;96097.03;5077921;28;20134;-64
2023/07/16 04:44:07;;;;;;;3.70;1.95;;;21.70;77.70;;;20.93;100.00;96094.63;5059077;28;20486;-65
2023/07/16 04:46:33;;;;;;;4.70;1.60;;;21.80;77.60;;;20.91;100.00;96086.06;5046534;28;20178;-64
2023/07/16 04:48:59;;;;;;;3.53;1.80;;;21.70;77.30;;;20.93;100.00;96083.13;5054670;28;20019;-65
2023/07/16 04:51:25;;;;;;;3.50;1.73;;;21.70;77.50;;;20.94;100.00;96092.75;5031337;28;20035;-65
2023/07/16 04:53:51;;;;;;;4.60;1.55;;;21.80;77.20;;;20.95;100.00;96097.03;5058344;28;20038;-65
2023/07/16 04:56:16;;;;;;;4.75;1.90;;;21.80;77.70;;;20.95;100.00;96097.03;5039412;28;21127;-65
2023/07/16 04:58:42;;;;;;;3.25;1.58;;;21.80;77.40;;;20.93;100.00;96101.84;5060980;28;20435;-64
2023/07/16 05:01:08;;;;;;;2.97;1.50;;;21.70;77.00;;;20.92;100.00;96113.59;5055105;28;20035;-65
2023/07/16 05:03:35;;;;;;;5.88;1.60;;;21.80;76.50;;;20.91;100.00;96106.66;5044765;28;20036;-65
2023/07/16 05:06:00;;;;;;;3.20;1.65;;;21.80;77.30;;;20.91;100.00;96114.66;5075044;28;20031;-65
2023/07/16 05:08:26;;;;;;;3.95;1.77;;;21.80;77.20;;;20.89;100.00;96114.13;5065963;28;20403;-66
2023/07/16 05:10:52;;;;;;;4.25;1.60;;;21.80;77.00;;;20.92;100.00;96129.66;5050776;28;20096;-66
2023/07/16 05:13:18;;;;;;;4.20;1.67;;;21.80;77.40;;;20.87;100.00;96127.75;5020373;28;20546;-68
2023/07/16 05:15:44;;;;;;;2.35;1.48;;;21.80;77.80;;;20.89;100.00;96132.84;4918989;28;22038;-68
2023/07/16 05:18:10;;;;;;;2.13;1.35;;;21.80;77.40;;;20.86;100.00;96120.78;4953017;28;20246;-67
2023/07/16 05:20:36;;;;;;;4.53;1.73;;;21.80;77.50;;;20.89;100.00;96122.13;4941827;28;20405;-69
2023/07/16 05:23:02;;;;;;;2.22;1.50;;;21.80;78.00;;;20.92;100.00;96130.44;4937380;28;20429;-66
2023/07/16 05:25:29;;;;;;;2.78;1.80;;;21.90;78.60;;;20.92;100.00;96135.81;4966341;28;20193;-66
2023/07/16 05:27:55;;;;;;;4.78;1.77;;;21.90;78.80;;;20.95;100.00;96126.47;4946350;28;20431;-66
2023/07/16 05:30:21;;;;;;;4.93;1.80;;;22.00;78.70;;;21.00;100.00;96131.84;4939164;28;20666;-66
2023/07/16 05:32:47;;;;;;;3.30;1.75;;;22.00;78.60;;;21.04;100.00;96138.31;4926764;28;20584;-65
2023/07/16 05:35:13;;;;;;;7.28;1.70;;;22.10;78.60;;;21.08;100.00;96136.75;4967872;28;20314;-66
2023/07/16 05:37:39;;;;;;;2.60;1.67;;;22.20;78.70;;;21.14;100.00;96140.28;4956691;28;20212;-66
2023/07/16 05:40:08;;;;;;;3.47;1.65;;;22.20;77.90;;;21.15;100.00;96134.66;4982712;28;20603;-65
2023/07/16 05:42:35;;;;;;;2.97;1.67;;;22.30;75.40;;;21.17;100.00;96134.41;4951349;28;20362;-66
2023/07/16 05:45:01;;;;;;;3.60;1.50;;;22.30;76.50;;;21.24;100.00;96138.50;4969883;28;20360;-66
2023/07/16 05:47:27;;;;;;;3.08;1.60;;;22.40;76.70;;;21.31;100.00;96147.16;4969832;27;20336;-66
2023/07/16 05:49:53;;;;;;;3.97;1.73;;;22.50;76.00;;;21.35;100.00;96145.56;4942250;27;20422;-66
2023/07/16 05:52:19;;;;;;;1.77;1.30;;;22.50;74.50;;;21.40;100.00;96142.94;4953434;28;20214;-65
2023/07/16 05:54:45;;;;;;;4.47;1.55;;;22.60;74.00;;;21.46;100.00;96145.63;4984926;28;20285;-65
2023/07/16 05:57:11;;;;;;;3.33;1.48;;;22.70;74.50;;;21.51;100.00;96145.69;4949394;28;20524;-65
2023/07/16 05:59:37;;;;;;;3.00;1.67;;;22.70;74.10;;;21.56;100.00;96156.44;4920303;28;20385;-66
2023/07/16 06:02:04;;;;;;;1.98;1.70;;;22.80;74.80;;;21.60;100.00;96152.97;4968365;28;20428;-66
2023/07/16 06:04:30;;;;;;;2.03;1.20;;;22.80;74.70;;;21.67;100.00;96158.09;4956987;28;20357;-66
2023/07/16 06:06:57;;;;;;;3.90;1.52;;;22.90;74.60;;;21.75;100.00;96165.69;4968290;28;20306;-66
2023/07/16 06:09:23;;;;;;;2.10;1.42;;;23.00;74.50;;;21.80;100.00;96162.22;4990472;28;20040;-66
2023/07/16 06:11:49;;;;;;;4.25;1.55;;;23.00;72.40;;;21.82;100.00;96168.94;5017428;27;20800;-66
2023/07/16 06:14:15;;;;;;;2.20;1.38;;;22.90;70.80;;;21.83;100.00;96162.50;5022396;28;20051;-67
2023/07/16 06:16:41;;;;;;;4.63;1.60;;;23.00;71.70;;;21.86;100.00;96167.34;5009804;28;20235;-65
2023/07/16 06:19:07;;;;;;;3.63;1.80;;;23.00;71.40;;;21.90;100.00;96167.63;4991857;28;20421;-66
2023/07/16 06:21:33;;;;;;;2.97;1.77;;;23.00;72.80;;;21.95;100.00;96175.69;4979629;28;20330;-65
2023/07/16 06:23:59;;;;;;;3.95;1.85;;;23.10;71.90;;;21.99;100.00;96180.28;4935632;28;20190;-65
2023/07/16 06:26:25;;;;;;;4.30;1.90;;;23.30;71.20;;;22.06;100.00;96187.31;4930494;28;20322;-65
2023/07/16 06:28:51;;;;;;;2.85;1.80;;;23.40;71.10;;;22.11;100.00;96195.38;4942641;28;20366;-65
2023/07/16 06:31:18;;;;;;;3.17;1.92;;;23.40;71.90;;;22.19;100.00;96181.50;4933812;28;20327;-65
2023/07/16 06:33:46;;;;;;;3.38;1.25;;;23.60;70.10;;;22.27;100.00;96187.16;4947183;28;20700;-67
2023/07/16 06:36:13;;;;;;;2.85;1.83;;;23.60;69.90;;;22.35;100.00;96191.22;4935027;28;20425;-67
2023/07/16 06:38:39;;;;;;;3.97;1.75;;;23.60;70.50;;;22.39;99.69;96192.28;4962894;28;20306;-66
2023/07/16 06:41:05;;;;;;;4.57;2.15;;;23.60;70.30;;;22.47;100.00;96197.19;4945502;28;20348;-66
2023/07/16 06:43:31;;;;;;;3.58;2.00;;;23.80;71.10;;;22.55;100.00;96199.34;4939476;28;20863;-66
2023/07/16 06:45:57;;;;;;;3.80;2.15;;;24.00;69.90;;;22.65;100.00;96189.75;4956722;28;20341;-63
2023/07/16 06:48:23;;;;;;;3.22;1.90;;;24.10;69.70;;;22.75;99.99;96184.41;4949714;28;20331;-64
2023/07/16 06:50:51;;;;;;;2.67;1.90;;;24.30;68.80;;;22.83;99.23;96186.59;4952141;28;20211;-66
2023/07/16 06:53:17;;;;;;;3.60;1.92;;;24.40;68.70;;;22.91;99.27;96183.41;4948682;28;20567;-66
2023/07/16 06:55:43;;;;;;;3.15;1.67;;;24.50;69.00;;;23.01;97.93;96191.47;4935381;27;20313;-65
2023/07/16 06:58:14;;;;;;;5.63;2.05;;;24.60;68.50;;;23.10;96.93;96181.84;4968298;28;20341;-66
2023/07/16 07:00:40;;;;;;;3.88;2.25;;;24.60;68.20;;;23.20;97.68;96189.09;4955275;28;20344;-65
2023/07/16 07:03:06;;;;;;;3.42;1.80;;;24.70;68.00;;;23.26;97.29;96189.91;4947018;28;20603;-66
2023/07/16 07:05:32;;;;;;;2.92;1.83;;;24.80;68.30;;;23.35;97.23;96196.38;4957626;28;20333;-65
2023/07/16 07:07:58;;;;;;;4.22;2.05;;;24.90;67.70;;;23.44;96.81;96182.13;4950111;28;20293;-64
2023/07/16 07:10:24;;;;;;;2.95;2.08;;;25.10;67.50;;;23.54;97.04;96189.41;4940125;28;20267;-64
2023/07/16 07:12:50;;;;;;;2.78;1.90;;;25.20;68.00;;;23.63;96.38;96190.50;4916865;28;20357;-67
2023/07/16 07:15:17;;;;;;;3.60;2.10;;;25.10;67.70;;;23.66;96.80;96189.94;4933421;28;20357;-66
2023/07/16 07:17:46;;;;;;;3.78;1.90;;;25.00;69.00;;;23.61;97.25;96192.66;4930930;28;20930;-68
2023/07/16 07:20:13;;;;;;;5.18;2.17;;;24.70;68.80;;;23.57;96.76;96183.53;4938317;28;20566;-67
2023/07/16 07:22:39;;;;;;;5.47;2.28;;;24.70;69.00;;;23.53;95.96;96185.06;4949870;27;20530;-67
2023/07/16 07:25:05;;;;;;;3.30;2.20;;;24.60;69.30;;;23.46;97.24;96184.53;4975931;28;20334;-67
2023/07/16 07:27:31;;;;;;;5.00;1.98;;;24.50;70.50;;;23.41;97.60;96189.91;4952004;28;20575;-68
2023/07/16 07:29:58;;;;;;;3.35;2.10;;;24.50;70.10;;;23.33;98.02;96193.94;4934084;28;20170;-66
2023/07/16 07:32:24;;;;;;;3.00;1.88;;;24.30;70.80;;;23.26;97.55;96189.91;4984884;28;20715;-67
2023/07/16 07:34:50;;;;;;;4.53;2.17;;;24.20;70.50;;;23.14;98.28;96192.84;4960952;28;20322;-68
2023/07/16 07:37:16;;;;;;;3.47;2.10;;;24.10;71.00;;;23.03;97.84;96197.38;4920848;28;20210;-68
2023/07/16 07:39:42;;;;;;;6.38;2.40;;;23.90;71.40;;;22.99;100.00;96201.66;4929531;27;20521;-67
2023/07/16 07:42:09;;;;;;;3.40;2.10;;;24.00;72.40;;;22.92;98.25;96191.19;4930651;28;20366;-67
2023/07/16 07:44:36;;;;;;;3.00;2.20;;;23.80;71.20;;;22.93;98.03;96192.00;4947912;28;20332;-68
2023/07/16 07:47:02;;;;;;;3.83;2.20;;;24.00;69.90;;;22.96;97.54;96190.66;4965686;28;20333;-67
2023/07/16 07:49:28;;;;;;;3.55;1.88;;;24.20;70.50;;;23.02;97.68;96190.41;4929953;28;20435;-66
2023/07/16 07:51:55;;;;;;;3.92;2.22;;;24.40;69.50;;;23.10;97.46;96181.84;4930733;28;20290;-67
2023/07/16 07:54:21;;;;;;;3.58;1.85;;;24.60;69.10;;;23.11;97.92;96185.34;4932031;28;20097;-66
2023/07/16 07:56:47;;;;;;;2.75;1.75;;;24.40;69.30;;;23.14;97.56;96182.91;4947404;28;20330;-66
2023/07/16 07:59:13;;;;;;;2.65;1.73;;;24.50;69.70;;;23.20;98.59;96187.22;4932782;28;20364;-66
2023/07/16 08:01:39;;;;;;;3.25;1.52;;;24.50;69.80;;;23.23;97.25;96189.38;4935134;28;20299;-67
2023/07/16 08:04:07;;;;;;;3.45;1.60;;;24.50;68.90;;;23.26;96.85;96190.69;4943723;28;20329;-66
2023/07/16 08:06:33;;;;;;;3.00;1.80;;;24.60;69.30;;;23.31;96.01;96181.84;4919630;28;20574;-66
2023/07/16 08:08:59;;;;;;;2.90;1.73;;;24.60;68.70;;;23.35;94.63;96182.94;4946280;28;20629;-66
2023/07/16 08:11:25;;;;;;;3.22;2.00;;;24.60;67.90;;;23.40;92.55;96185.63;4994110;27;20355;-67
2023/07/16 08:13:51;;;;;;;3.78;1.95;;;24.70;66.50;;;23.50;91.13;96175.69;4940935;28;20358;-68
2023/07/16 08:16:18;;;;;;;4.88;2.10;;;25.00;65.70;;;23.57;91.28;96185.41;4948968;27;20243;-67
2023/07/16 08:18:43;;;;;;;2.97;1.50;;;25.00;65.80;;;23.65;89.48;96177.59;4954313;28;20522;-64
2023/07/16 08:21:10;;;;;;;4.13;1.48;;;25.10;64.30;;;23.71;88.55;96159.59;4980804;27;20794;-65
2023/07/16 08:23:36;;;;;;;3.25;1.40;;;25.10;63.80;;;23.77;88.68;96150.47;4954351;28;20182;-66
2023/07/16 08:26:02;;;;;;;2.00;1.45;;;25.30;64.50;;;23.83;88.03;96160.94;4964938;28;20445;-65
2023/07/16 08:28:28;;;;;;;2.30;1.48;;;25.40;63.90;;;23.91;87.47;96153.38;4959610;28;20394;-65
2023/07/16 08:30:54;;;;;;;5.03;1.70;;;25.50;63.60;;;23.96;87.58;96161.44;4958685;28;20446;-65
2023/07/16 08:33:20;;;;;;;4.53;1.60;;;25.60;64.00;;;24.00;87.50;96160.63;4965340;28;20378;-67
2023/07/16 08:35:46;;;;;;;3.45;1.60;;;25.60;63.80;;;24.10;87.04;96162.47;4958816;28;20316;-68
2023/07/16 08:38:13;;;;;;;3.72;1.50;;;25.80;63.50;;;24.18;86.78;96156.53;4944514;28;20197;-65
2023/07/16 08:40:39;;;;;;;3.90;1.80;;;25.80;63.50;;;24.25;86.03;96154.38;4963147;28;20361;-66
2023/07/16 08:43:06;;;;;;;2.50;1.40;;;26.10;62.40;;;24.50;86.15;96150.00;4926096;28;20316;-67
2023/07/16 08:45:36;;;;;;;2.67;1.70;;;26.90;61.00;;;24.85;84.36;96139.03;4922593;28;20371;-66
2023/07/16 08:48:02;;;;;;;3.17;1.70;;;27.60;57.50;;;25.15;82.68;96137.28;4956863;27;20569;-66
2023/07/16 08:50:28;;;;;;;2.60;1.75;;;28.20;56.10;;;25.51;81.03;96135.91;4948298;28;20360;-66
2023/07/16 08:52:54;;;;;;;2.17;1.52;;;28.70;54.50;;;25.82;78.85;96130.28;4946729;28;20352;-67
2023/07/16 08:55:20;;;;;;;1.60;1.30;;;29.00;52.80;;;26.08;78.38;96126.22;4950965;28;20142;-66
2023/07/16 08:57:46;;;;;;;4.35;1.50;;;29.20;53.20;;;26.32;74.70;96114.63;4950215;27;20802;-66
2023/07/16 09:00:13;;;;;;;4.60;1.20;;;29.20;50.10;;;26.66;72.53;96111.78;4957420;28;20371;-66
2023/07/16 09:02:39;;;;;;;1.70;1.10;;;30.00;48.20;;;27.05;70.68;96112.31;4920026;28;20291;-66
2023/07/16 09:05:05;;;;;;;1.38;0.98;;;30.50;46.90;;;27.42;69.01;96111.47;4919215;28;20345;-67
2023/07/16 09:07:31;;;;;;;2.35;1.20;;;30.90;46.40;;;27.84;67.80;96109.69;4952215;27;20427;-66
2023/07/16 09:09:59;;;;;;;2.05;1.25;;;31.40;45.90;;;28.27;65.67;96112.91;4967457;28;20485;-65
2023/07/16 09:12:26;;;;;;;1.55;1.10;;;31.60;44.30;;;28.51;63.76;96123.50;4972974;28;20495;-66
2023/07/16 09:14:52;;;;;;;1.40;0.85;;;31.20;45.00;;;28.56;62.85;96118.03;4932460;28;20441;-67
2023/07/16 09:17:24;;;;;;;1.65;1.17;;;31.00;45.00;;;28.57;58.55;96099.88;4963624;28;20321;-68
2023/07/16 09:19:53;;;;;;;1.88;1.20;;;30.60;44.90;;;28.47;59.26;96106.28;4932092;28;20352;-69
2023/07/16 09:22:22;;;;;;;2.55;1.23;;;30.40;45.40;;;28.45;60.60;96113.09;4931307;28;20047;-66
2023/07/16 09:24:48;;;;;;;2.50;1.05;;;30.70;45.40;;;28.65;60.00;96108.06;4929887;28;20697;-68
2023/07/16 09:27:14;;;;;;;2.53;1.08;;;31.20;45.00;;;28.82;59.31;96103.94;4952290;28;20187;-67
2023/07/16 09:29:40;;;;;;;3.40;1.33;;;31.20;44.10;;;28.89;58.99;96104.31;4934188;28;20363;-67
2023/07/16 09:32:07;;;;;;;1.90;1.00;;;31.30;44.30;;;28.95;59.06;96108.50;4926768;28;20352;-67
2023/07/16 09:34:33;;;;;;;1.63;0.98;;;31.50;44.70;;;28.95;58.69;96098.47;4963035;28;20579;-67
2023/07/16 09:37:00;;;;;;;3.22;1.00;;;31.50;44.10;;;29.28;59.13;96107.19;4965495;28;20390;-67
2023/07/16 09:39:27;;;;;;;2.50;1.20;;;32.40;43.60;;;29.49;57.46;96098.59;4963400;28;20550;-67
2023/07/16 09:41:53;;;;;;;1.35;1.00;;;32.10;42.50;;;29.52;56.73;96089.84;4950304;28;20347;-67
2023/07/16 09:44:19;;;;;;;4.13;1.30;;;31.90;42.90;;;29.58;56.41;96094.81;4949692;28;20217;-67
2023/07/16 09:46:46;;;;;;;1.83;1.00;;;31.90;43.20;;;29.46;56.31;96080.25;4932689;28;20545;-67
2023/07/16 09:49:12;;;;;;;3.70;0.90;;;31.60;44.20;;;29.45;56.79;96079.44;4959629;28;20469;-67
2023/07/16 09:51:38;;;;;;;1.40;1.08;;;31.60;44.50;;;29.48;56.26;96073.41;4952240;28;20497;-67
2023/07/16 09:54:05;;;;;;;2.83;1.17;;;31.60;44.00;;;29.53;56.26;96075.19;4945848;28;20566;-66
2023/07/16 09:56:55;;;;;;;1.70;1.30;;;31.80;43.70;;;29.70;54.11;96042.75;4952601;28;20368;-66
2023/07/16 09:59:23;;;;;;;;;;;32.50;42.20;;;30.02;54.63;96051.63;4963114;28;20394;-64
2023/07/16 10:01:50;;;;;;;4.10;1.23;;;33.30;42.10;;;30.35;54.92;96058.31;4960614;28;20035;-66
2023/07/16 10:04:19;;;;;;;2.75;1.17;;;33.80;39.50;;;30.48;51.28;96035.63;4950737;28;20353;-66
2023/07/16 10:07:04;;;;;;;2.20;1.17;;;33.30;39.90;;;30.59;50.20;96027.19;4937905;28;20364;-66
2023/07/16 10:09:38;;;;;;;2.45;1.00;;;33.50;39.50;;;30.94;51.12;96042.41;4966533;28;20073;-64
2023/07/16 10:12:25;;;;;;;2.10;1.05;;;34.70;39.00;;;31.46;49.49;96031.50;4955502;28;20472;-68